Terminal Aerodrome Forecast
Issued by NWS Shreveport, LA

Home | Current Version | Previous Version | Text Only | Print | Product List | Glossary On
Versions: 1 2 3 4 5 6 7 8 9 10 11 12 13 14 15 16 17 18 19 20 21 22 23 24 25 26 27 28
000
FTUS44 KSHV 041300 AAA
TAFTYR
TAF AMD
KTYR 041344Z 0414/0512 33005KT 1SM BR VCSH OVC010
      TEMPO 0414/0416 1/4SM -RA FG
     FM041600 21010KT 5SM -SHRA BR VCTS BKN010CB
      TEMPO 0417/0420 3SM -TSRA BR BKN006CB
     FM042000 35014G22KT P6SM -RA OVC010
     FM050900 01015KT 5SM -FZRA BR OVC009=

USA.gov is the U.S. government's official web portal to all federal, state and local government web resources and services.